Tehran, Iran

6:54 PM IRST on October 25, 2014 (GMT +0330)
molasadra | Change Station
CLOSE
Current Station
Personal Weather Station
Location: Tehran, TEHRAN
Elevation: 4774 ft
Nearby Weather Stations

Elev 4774 ft 35.76 °N, 51.40 °E | Updated 33 seconds ago

Clear
Clear
66.7 °F
Feels Like 66.7 °F
N
3.0
Wind Variable Wind from NNW
Gusts 4.0 mph

Today
High -- | Low -- °F
--% Chance of Precip.
Yesterday
High -- | Low -- °F
Precip. -- in
6:19 AM 5:17 PM
Waxing Crescent, 3% visible
Pressure 29.98 in
Visibility -9999.0 miles
Clouds
Dew Point 20 °F
Humidity 17%
Rainfall 0.00 in
Snow Depth Not available.
UV Not available.
Pollen Not available.
Air Quality Not available.
Flu Activity Not available.
METAR OIII 251500Z 33006KT CAVOK 21/M08 Q1015 A2999 NOSIG

More Conditions Fewer Conditions

Pressure 29.98 in
Visibility -9999.0 miles
Clouds
Dew Point 20 °F
Humidity 17%
Rainfall 0.00 in
Snow Depth Not available.
UV Not available.
Pollen Not available.
Air Quality Not available.
Flu Activity Not available.
METAR OIII 251500Z 33006KT CAVOK 21/M08 Q1015 A2999 NOSIG

More Conditions Fewer Conditions

10-Day Weather Forecast

Almanac

Astronomy

Oct. 25, 2014 Rise Set
Actual Time 6:19 AM IRST 5:17 PM IRST
Civil Twilight 5:53 AM IRST 5:43 PM IRST
Nautical Twilight 5:23 AM IRST 6:13 PM IRST
Astronomical Twilight 4:54 AM IRST 6:42 PM IRST
Moon 7:33 AM IRST 6:25 PM IRST
Length of Visible Light 11h 49m
Length of Day
10h 57m
Tomorrow will be 2m 4s shorter.
Waxing Crescent, 3% of the Moon is Illuminated
Today
Waxing Crescent
Oct 30
First Quarter
Nov 6
Full
Nov 14
Last Quarter
Nov 22
New

Today's Extremes

Country Highs Country Lows

Community

WunderPhotos

Upload Photos

1,764,876 photos uploaded!

Nearby

Snow Depth

Not available.

Earthquake Activity

City Distance Mag. Time & Date
No recent earthquake activity has been reported nearby.
Minimum magnitude displayed is 2.5.

Coastal Water Temperatures

Place Temperature
No Stations Reporting

Nearby Weather Stations